ASY551 YSSY-YSCB
Flight info
| Callsign | ASY551 |
|---|---|
| Flight time | N/A |
| Altitude | 20000 |
| Route | GROOK1/16R WOL H65 LEECE |
| Aircraft | B38M/M-SDE1FGHILORVWXY/HB1 |
Departure
| Time | 2026-05-05 06:58 |
|---|---|
| Airport | Sydney Kingsford Smith International Airport (YSSY) |
Arrival
| Time | N/A |
|---|---|
| Airport | Canberra Airport (YSCB) |
| Time | Latitude | Longitude | Altitude | Speed | Heading |
|---|---|---|---|---|---|
| 2026-05-05 06:19 | -33.93536 | 151.18951 | 30 ft | 0 kts | 165° |
| 2026-05-05 06:47 | -33.93543 | 151.18954 | 31 ft | 2 kts | 165° |
| 2026-05-05 06:47 | -33.93563 | 151.18960 | 31 ft | 4 kts | 165° |
| 2026-05-05 06:47 | -33.93586 | 151.18950 | 29 ft | 4 kts | 227° |
| 2026-05-05 06:47 | -33.93599 | 151.18903 | 30 ft | 7 kts | 265° |
| 2026-05-05 06:48 | -33.93590 | 151.18836 | 31 ft | 8 kts | 270° |
| 2026-05-05 06:48 | -33.93606 | 151.18766 | 31 ft | 9 kts | 253° |
| 2026-05-05 06:48 | -33.93625 | 151.18692 | 29 ft | 10 kts | 253° |
| 2026-05-05 06:48 | -33.93643 | 151.18613 | 31 ft | 10 kts | 256° |
| 2026-05-05 06:49 | -33.93661 | 151.18531 | 31 ft | 11 kts | 254° |
| 2026-05-05 06:49 | -33.93682 | 151.18442 | 30 ft | 12 kts | 253° |
| 2026-05-05 06:49 | -33.93706 | 151.18347 | 31 ft | 12 kts | 253° |
| 2026-05-05 06:49 | -33.93729 | 151.18247 | 31 ft | 13 kts | 255° |
| 2026-05-05 06:50 | -33.93752 | 151.18145 | 31 ft | 13 kts | 254° |
| 2026-05-05 06:50 | -33.93777 | 151.18040 | 31 ft | 13 kts | 254° |
| 2026-05-05 06:50 | -33.93802 | 151.17935 | 31 ft | 13 kts | 254° |
| 2026-05-05 06:50 | -33.93817 | 151.17871 | 31 ft | 6 kts | 254° |
| 2026-05-05 06:51 | -33.93818 | 151.17866 | 31 ft | 0 kts | 254° |
| 2026-05-05 06:52 | -33.93819 | 151.17865 | 31 ft | 1 kts | 254° |
| 2026-05-05 06:52 | -33.93823 | 151.17848 | 31 ft | 3 kts | 254° |
| 2026-05-05 06:53 | -33.93831 | 151.17812 | 31 ft | 5 kts | 254° |
| 2026-05-05 06:53 | -33.93843 | 151.17759 | 31 ft | 8 kts | 254° |
| 2026-05-05 06:53 | -33.93859 | 151.17691 | 30 ft | 9 kts | 253° |
| 2026-05-05 06:53 | -33.93864 | 151.17621 | 30 ft | 5 kts | 297° |
| 2026-05-05 06:54 | -33.93814 | 151.17589 | 30 ft | 13 kts | 346° |
| 2026-05-05 06:54 | -33.93698 | 151.17560 | 30 ft | 21 kts | 347° |
| 2026-05-05 06:54 | -33.93550 | 151.17520 | 30 ft | 21 kts | 347° |
| 2026-05-05 06:54 | -33.93406 | 151.17508 | 31 ft | 20 kts | 358° |
| 2026-05-05 06:55 | -33.93270 | 151.17476 | 31 ft | 20 kts | 347° |
| 2026-05-05 06:55 | -33.93131 | 151.17439 | 29 ft | 19 kts | 348° |
| 2026-05-05 06:55 | -33.93016 | 151.17409 | 29 ft | 16 kts | 347° |
| 2026-05-05 06:55 | -33.92962 | 151.17329 | 31 ft | 8 kts | 281° |
| 2026-05-05 06:56 | -33.92959 | 151.17309 | 31 ft | 2 kts | 281° |
| 2026-05-05 06:56 | -33.92957 | 151.17300 | 31 ft | 1 kts | 282° |
| 2026-05-05 06:56 | -33.92954 | 151.17275 | 32 ft | 7 kts | 276° |
| 2026-05-05 06:56 | -33.92981 | 151.17197 | 30 ft | 11 kts | 224° |
| 2026-05-05 06:57 | -33.93037 | 151.17185 | 31 ft | 0 kts | 168° |
| 2026-05-05 06:57 | -33.93038 | 151.17185 | 31 ft | 1 kts | 168° |
| 2026-05-05 06:57 | -33.93151 | 151.17214 | 32 ft | 42 kts | 168° |
| 2026-05-05 06:57 | -33.93612 | 151.17335 | 28 ft | 92 kts | 168° |
| 2026-05-05 06:58 | -33.94363 | 151.17531 | 32 ft | 127 kts | 168° |
| 2026-05-05 06:58 | -33.95310 | 151.17770 | 159 ft | 148 kts | 169° |
| 2026-05-05 06:58 | -33.96354 | 151.17979 | 465 ft | 156 kts | 175° |
| 2026-05-05 06:58 | -33.97446 | 151.17919 | 837 ft | 158 kts | 183° |
| 2026-05-05 06:59 | -33.98544 | 151.17788 | 1216 ft | 159 kts | 186° |
| 2026-05-05 06:59 | -33.99680 | 151.17648 | 1479 ft | 167 kts | 185° |
| 2026-05-05 06:59 | -34.00841 | 151.17545 | 1697 ft | 172 kts | 182° |
| 2026-05-05 06:59 | -34.02072 | 151.17506 | 1836 ft | 182 kts | 181° |
| 2026-05-05 07:00 | -34.03361 | 151.17699 | 1913 ft | 193 kts | 165° |
| 2026-05-05 07:00 | -34.04716 | 151.18168 | 1986 ft | 215 kts | 165° |
| 2026-05-05 07:00 | -34.06221 | 151.18684 | 2325 ft | 234 kts | 166° |
| 2026-05-05 07:00 | -34.07846 | 151.19226 | 2774 ft | 248 kts | 167° |
| 2026-05-05 07:01 | -34.09527 | 151.19783 | 3399 ft | 254 kts | 167° |
| 2026-05-05 07:01 | -34.11243 | 151.20356 | 4045 ft | 258 kts | 167° |
| 2026-05-05 07:01 | -34.12985 | 151.20938 | 4737 ft | 261 kts | 167° |
| 2026-05-05 07:01 | -34.14742 | 151.21524 | 5420 ft | 263 kts | 166° |
| 2026-05-05 07:02 | -34.16519 | 151.22118 | 6080 ft | 267 kts | 167° |
| 2026-05-05 07:02 | -34.18330 | 151.22625 | 6725 ft | 267 kts | 180° |
| 2026-05-05 07:02 | -34.20150 | 151.22287 | 7317 ft | 267 kts | 204° |
| 2026-05-05 07:02 | -34.21701 | 151.21084 | 7933 ft | 267 kts | 227° |
| 2026-05-05 07:03 | -34.22941 | 151.19406 | 8576 ft | 269 kts | 231° |
| 2026-05-05 07:03 | -34.24160 | 151.17671 | 9254 ft | 272 kts | 231° |
| 2026-05-05 07:03 | -34.25396 | 151.15922 | 9956 ft | 275 kts | 231° |
| 2026-05-05 07:03 | -34.26658 | 151.14159 | 10513 ft | 281 kts | 231° |
| 2026-05-05 07:04 | -34.27960 | 151.12331 | 10919 ft | 292 kts | 231° |
| 2026-05-05 07:04 | -34.29301 | 151.10439 | 11429 ft | 299 kts | 231° |
| 2026-05-05 07:04 | -34.30668 | 151.08512 | 12005 ft | 304 kts | 231° |
| 2026-05-05 07:04 | -34.32053 | 151.06562 | 12632 ft | 307 kts | 231° |
| 2026-05-05 07:05 | -34.33451 | 151.04590 | 13274 ft | 310 kts | 231° |
| 2026-05-05 07:05 | -34.34862 | 151.02599 | 13933 ft | 313 kts | 230° |
| 2026-05-05 07:05 | -34.36286 | 151.00588 | 14518 ft | 316 kts | 231° |
| 2026-05-05 07:05 | -34.37793 | 150.98639 | 15084 ft | 320 kts | 224° |
| 2026-05-05 07:06 | -34.39476 | 150.96818 | 15473 ft | 330 kts | 223° |
| 2026-05-05 07:06 | -34.41217 | 150.94953 | 15905 ft | 337 kts | 223° |
| 2026-05-05 07:06 | -34.42958 | 150.93068 | 16378 ft | 343 kts | 224° |
| 2026-05-05 07:06 | -34.44749 | 150.91115 | 16889 ft | 348 kts | 224° |
| 2026-05-05 07:07 | -34.46533 | 150.89175 | 17406 ft | 352 kts | 224° |
| 2026-05-05 07:07 | -34.48365 | 150.87188 | 17939 ft | 355 kts | 224° |
| 2026-05-05 07:07 | -34.50215 | 150.85178 | 18499 ft | 359 kts | 224° |
| 2026-05-05 07:07 | -34.52078 | 150.83150 | 18961 ft | 362 kts | 224° |
| 2026-05-05 07:08 | -34.53956 | 150.81104 | 19432 ft | 365 kts | 225° |
| 2026-05-05 07:08 | -34.55810 | 150.78995 | 19893 ft | 365 kts | 231° |
| 2026-05-05 07:08 | -34.57357 | 150.76559 | 20134 ft | 365 kts | 236° |
| 2026-05-05 07:08 | -34.58843 | 150.74068 | 20140 ft | 363 kts | 236° |